Enter the Airport ICAO Code

Search by Airport or City

Current Weather

LEMG | Málaga Airport

Málaga, Andalusia, Spain

Last Update 24 Minutes Ago

Mostly Cloudy Sky

Temperature of 23 ºC

Moderate Winds from West

Temperature

23 ºC

Dew Point Temperature

11 ºC

Relative Humidity

46.93 %

Wind Direction

West (280º, Ranging from 250º to 310º)

Wind Velocity

20 km/h (11 kt)

Gusts

None

Visibility

Greater than 10 Kilometers

Sea Level Pressure

1015 hPa (Hectopascals)

Layers of Clouds

5% to 30% of Sky Covered from 1524 mts (5000 ft) Above Ground Level.

60% to 90% of Sky Covered from 2438 mts (8000 ft) Above Ground Level.

METAR LEMG 191100Z 28011KT 250V310 9999 FEW050 BKN080 23/11 Q1015 NOSIG

Weather Forecast

LEMG | Málaga Airport

Málaga, Andalusia, Spain

Forecast valid for the next 19 Hours

From now on it is expected:

Sky with Few Clouds

Light to Moderate Winds from West

In 2 to 4 hours it is expected the begining of:

Moderate Winds from South

In 7 to 9 hours it is expected the begining of:

Light to Moderate Winds from West

Maximum Temperature

28 ºC in 3 Hours

Minimum Temperature

19 ºC in -5 Hours

TAF LEMG 190500Z 1906/2006 29009KT 9999 FEW050 TX28/1914Z TN19/1906Z BECMG 1913/1915 20012KT BECMG 1918/1920 29007KT